Time;durP1;ratioP1;P1;durP2;ratioP2;P2;SDS_P1;SDS_P2;PMS_P1;PMS_P2;Temp;Humidity;BMP_temperature;BMP_pressure;BME280_temperature;BME280_humidity;BME280_pressure;Samples;Min_cycle;Max_cycle;Signal;HPM_P1;HPM_P2
2023/03/13 00:04:15;;;;;;;6.10;1.65;;;;;;;22.11;33.73;101499.44;21079161;28;20040;-64
2023/03/13 00:14:16;;;;;;;5.00;1.55;;;;;;;22.05;33.68;101502.22;21071693;28;20110;-63
2023/03/13 00:24:18;;;;;;;5.65;1.60;;;;;;;22.00;33.71;101506.94;21107055;28;20092;-64
2023/03/13 00:34:19;;;;;;;3.17;1.67;;;;;;;21.90;34.04;101476.25;21087859;28;20051;-63
2023/03/13 00:44:21;;;;;;;4.18;1.67;;;;;;;21.88;33.82;101511.91;21073466;28;20043;-64
2023/03/13 00:54:22;;;;;;;2.17;1.80;;;;;;;21.83;33.63;101521.94;21076648;28;20480;-63
2023/03/13 01:04:23;;;;;;;4.40;1.80;;;;;;;21.75;33.86;101519.66;21074058;28;20436;-65
2023/03/13 01:14:25;;;;;;;3.08;1.52;;;;;;;21.60;34.13;101505.69;21078571;28;20098;-64
2023/03/13 01:24:26;;;;;;;3.45;1.70;;;;;;;21.66;33.90;101537.16;21090611;28;20051;-64
2023/03/13 01:34:30;;;;;;;3.03;1.40;;;;;;;21.61;33.92;101512.91;21092170;28;20069;-64
2023/03/13 01:44:52;;;;;;;4.35;1.83;;;;;;;21.39;34.07;101492.75;21111870;28;20060;-64
2023/03/13 01:55:03;;;;;;;3.35;1.48;;;;;;;21.38;33.83;101486.38;21090317;28;20536;-64
2023/03/13 02:05:06;;;;;;;5.07;1.77;;;;;;;21.47;33.92;101508.97;21090144;28;20074;-64
2023/03/13 02:15:19;;;;;;;2.40;1.27;;;;;;;21.34;34.02;101496.38;21089369;28;20039;-65
2023/03/13 02:25:24;;;;;;;2.30;1.60;;;;;;;21.39;33.76;101528.97;21087194;28;20044;-65
2023/03/13 02:35:28;;;;;;;1.98;1.30;;;;;;;21.26;33.88;101500.47;21087272;28;20130;-65
2023/03/13 02:45:30;;;;;;;2.08;1.40;;;;;;;20.98;33.81;101464.66;21089912;28;20074;-64
2023/03/13 02:55:39;;;;;;;1.92;1.40;;;;;;;21.30;33.93;101517.47;21078890;28;20055;-64
2023/03/13 03:05:41;;;;;;;3.15;1.40;;;;;;;21.26;33.87;101478.22;21085223;28;20443;-64
2023/03/13 03:15:42;;;;;;;2.45;1.40;;;;;;;21.25;34.18;101487.66;21082901;28;20128;-63
2023/03/13 03:25:44;;;;;;;1.50;1.35;;;;;;;21.26;33.84;101471.81;21082277;28;20051;-65
2023/03/13 03:35:45;;;;;;;2.65;1.38;;;;;;;21.24;33.98;101460.09;21081737;28;20048;-65
2023/03/13 03:45:47;;;;;;;1.88;1.10;;;;;;;21.21;33.96;101467.06;21081645;28;20024;-63
2023/03/13 03:55:48;;;;;;;3.08;1.40;;;;;;;21.19;33.86;101462.84;21080963;28;20047;-64
2023/03/13 04:05:50;;;;;;;1.45;1.13;;;;;;;20.98;33.86;101432.16;21080137;28;20043;-64
2023/03/13 04:15:51;;;;;;;2.08;1.50;;;;;;;21.13;34.03;101452.81;21035694;28;20040;-64
2023/03/13 04:25:55;;;;;;;3.90;1.33;;;;;;;21.12;34.16;101454.75;21074862;28;20040;-64
2023/03/13 04:35:59;;;;;;;3.67;1.30;;;;;;;21.22;33.15;101438.09;21070348;28;20051;-64
2023/03/13 04:46:03;;;;;;;1.98;1.38;;;;;;;21.29;33.22;101433.13;21079409;28;20032;-64
2023/03/13 04:56:05;;;;;;;1.92;1.02;;;;;;;21.28;33.34;101423.09;21073920;28;20062;-64
2023/03/13 05:06:09;;;;;;;6.95;1.40;;;;;;;21.31;33.29;101424.53;21079343;28;20062;-63
2023/03/13 05:16:11;;;;;;;2.05;1.30;;;;;;;21.26;33.05;101400.28;21066935;28;20040;-65
2023/03/13 05:26:12;;;;;;;2.70;1.50;;;;;;;21.22;33.06;101384.41;21074221;28;20044;-64
2023/03/13 05:36:13;;;;;;;2.03;1.40;;;;;;;21.31;32.81;101396.72;21075024;28;20048;-65
2023/03/13 05:46:15;;;;;;;1.30;1.15;;;;;;;21.32;33.10;101395.59;21074901;28;20048;-65
2023/03/13 05:56:16;;;;;;;1.60;1.00;;;;;;;21.31;32.97;101388.34;21074140;28;20433;-64
2023/03/13 06:06:17;;;;;;;1.50;0.95;;;;;;;21.29;32.81;101394.16;21085497;28;20081;-64
2023/03/13 06:16:19;;;;;;;1.90;1.35;;;;;;;21.29;32.62;101393.31;21088618;28;20552;-64
2023/03/13 06:26:24;;;;;;;1.25;1.10;;;;;;;21.27;32.89;101382.47;21087989;28;20068;-64
2023/03/13 06:36:25;;;;;;;3.20;1.17;;;;;;;21.21;32.59;101380.78;21083949;28;20036;-64
2023/03/13 06:46:36;;;;;;;1.30;1.00;;;;;;;21.20;32.49;101379.09;21086554;28;20105;-65
2023/03/13 06:56:42;;;;;;;1.55;1.35;;;;;;;21.22;32.75;101379.66;21082216;28;20051;-65
2023/03/13 07:06:43;;;;;;;1.88;1.10;;;;;;;21.17;32.90;101357.38;21076024;28;20043;-65
2023/03/13 07:16:45;;;;;;;1.90;1.20;;;;;;;21.13;32.51;101350.69;21076678;28;20044;-64
2023/03/13 07:26:46;;;;;;;1.92;1.20;;;;;;;21.11;32.52;101325.06;21079738;28;20062;-65
2023/03/13 07:36:48;;;;;;;1.08;1.00;;;;;;;21.12;32.83;101312.84;21081305;28;20040;-65
2023/03/13 07:46:49;;;;;;;1.50;1.00;;;;;;;21.11;32.56;101302.78;21081836;28;20054;-65
2023/03/13 07:56:50;;;;;;;1.38;1.00;;;;;;;21.02;32.73;101291.34;21079671;28;20101;-65
2023/03/13 08:06:53;;;;;;;1.70;1.23;;;;;;;21.07;32.67;101284.97;21080159;28;20036;-64
2023/03/13 08:16:57;;;;;;;1.10;1.00;;;;;;;21.06;32.36;101263.81;21075754;28;20432;-65
2023/03/13 08:26:59;;;;;;;2.03;1.17;;;;;;;20.99;32.36;101244.63;21051599;28;20475;-65
2023/03/13 08:37:00;;;;;;;1.40;1.00;;;;;;;20.96;32.50;101255.47;21071809;28;20395;-64
2023/03/13 08:47:07;;;;;;;1.38;1.10;;;;;;;21.00;32.65;101262.16;21073108;28;20036;-65
2023/03/13 08:57:11;;;;;;;1.20;1.00;;;;;;;20.98;32.92;101253.22;21073049;28;20062;-63
2023/03/13 09:07:12;;;;;;;1.48;1.00;;;;;;;20.86;32.50;101241.53;21069629;28;20109;-65
2023/03/13 09:17:14;;;;;;;1.65;1.00;;;;;;;20.91;32.66;101247.09;21072225;28;20085;-65
2023/03/13 09:27:18;;;;;;;3.03;1.15;;;;;;;20.95;32.81;101259.34;21073137;28;20044;-65
2023/03/13 09:37:19;;;;;;;1.73;1.10;;;;;;;20.97;33.15;101257.13;21080200;28;20070;-65
2023/03/13 09:47:43;;;;;;;1.75;0.75;;;;;;;21.02;32.90;101254.34;21091559;28;20069;-65
2023/03/13 09:57:58;;;;;;;1.20;0.68;;;;;;;20.94;33.23;101235.44;21090009;28;20040;-65
2023/03/13 10:08:12;;;;;;;1.50;0.90;;;;;;;21.05;32.96;101248.25;21088768;28;20043;-65
2023/03/13 10:18:22;;;;;;;1.00;0.88;;;;;;;21.09;33.16;101248.53;21088496;28;20105;-65
2023/03/13 10:28:24;;;;;;;1.33;0.98;;;;;;;21.08;33.43;101244.09;21082854;28;20437;-64
2023/03/13 10:38:26;;;;;;;1.58;0.93;;;;;;;21.06;33.40;101244.34;21079330;28;20047;-64
2023/03/13 10:48:36;;;;;;;1.80;1.00;;;;;;;21.07;33.23;101243.22;21075086;28;20105;-64
2023/03/13 10:58:43;;;;;;;2.08;0.95;;;;;;;21.10;33.59;101251.03;21072715;28;20560;-64
2023/03/13 11:08:47;;;;;;;3.05;1.05;;;;;;;20.95;33.59;101220.41;21016980;28;20043;-65
2023/03/13 11:19:12;;;;;;;1.63;0.70;;;;;;;21.09;33.92;101270.81;21081676;28;20105;-63
2023/03/13 11:29:17;;;;;;;4.32;1.27;;;;;;;21.10;33.90;101283.59;21075638;28;20047;-64
2023/03/13 11:39:49;;;;;;;5.22;1.33;;;;;;;21.03;34.41;101273.56;21069818;28;20048;-64
2023/03/13 11:50:01;;;;;;;3.33;1.20;;;;;;;21.06;34.04;101278.56;21077334;28;20047;-64
2023/03/13 12:00:18;;;;;;;5.03;1.35;;;;;;;21.06;34.28;101274.97;21079192;28;20044;-63
2023/03/13 12:10:40;;;;;;;5.55;1.30;;;;;;;21.02;34.16;101273.81;21080239;28;20036;-64
2023/03/13 12:20:57;;;;;;;4.10;1.25;;;;;;;21.08;34.36;101275.53;21079178;28;20093;-64
2023/03/13 12:31:21;;;;;;;4.45;0.90;;;;;;;21.04;34.23;101261.31;21077619;28;20039;-64
2023/03/13 12:41:27;;;;;;;2.55;0.90;;;;;;;20.90;34.44;101228.75;21077845;28;20052;-64
2023/03/13 12:51:53;;;;;;;1.23;0.80;;;;;;;21.07;34.47;101259.94;21077108;28;20040;-64
2023/03/13 13:01:55;;;;;;;1.75;1.02;;;;;;;21.00;34.50;101225.97;21076282;28;20491;-64
2023/03/13 13:12:26;;;;;;;2.30;0.95;;;;;;;21.01;34.37;101219.31;21075859;28;20036;-63
2023/03/13 13:22:36;;;;;;;3.42;1.52;;;;;;;20.97;34.75;101221.78;21075723;28;20047;-63
2023/03/13 13:32:41;;;;;;;1.77;1.10;;;;;;;20.74;34.58;101192.53;21075307;28;20051;-63
2023/03/13 13:42:56;;;;;;;2.38;1.20;;;;;;;20.85;34.66;101221.22;21069455;28;20044;-63
2023/03/13 13:53:40;;;;;;;2.08;1.20;;;;;;;20.77;35.08;101214.22;21074952;28;20113;-64
2023/03/13 14:03:44;;;;;;;1.20;0.80;;;;;;;20.78;35.19;101209.50;21074164;28;20044;-65
2023/03/13 14:14:10;;;;;;;1.02;0.90;;;;;;;20.68;34.93;101184.44;21073698;28;20113;-64
2023/03/13 14:24:13;;;;;;;2.17;1.10;;;;;;;20.66;35.28;101172.75;21079884;28;20040;-64
2023/03/13 14:34:14;;;;;;;1.40;1.17;;;;;;;20.65;35.32;101174.69;21087893;28;20036;-65
2023/03/13 14:44:27;;;;;;;2.05;1.45;;;;;;;20.09;35.50;101095.81;21086919;28;20062;-64
2023/03/13 14:54:34;;;;;;;1.92;1.10;;;;;;;20.58;35.54;101164.97;21086160;28;20120;-63
2023/03/13 15:05:02;;;;;;;1.85;1.20;;;;;;;20.50;35.58;101153.25;21085609;28;20024;-63
2023/03/13 15:15:04;;;;;;;2.38;1.23;;;;;;;20.56;35.31;101145.75;21085011;28;20028;-64
2023/03/13 15:25:18;;;;;;;1.90;1.20;;;;;;;20.52;35.49;101139.91;21083899;28;20040;-64
2023/03/13 15:35:26;;;;;;;4.25;1.52;;;;;;;20.52;35.26;101127.94;21082038;28;20403;-64
2023/03/13 15:45:27;;;;;;;3.83;1.50;;;;;;;20.53;35.36;101113.78;21075694;28;20032;-63
2023/03/13 15:55:29;;;;;;;2.85;1.25;;;;;;;20.52;35.82;101108.47;21074556;28;20491;-63
2023/03/13 16:05:36;;;;;;;36.28;3.72;;;;;;;20.55;35.72;101103.22;21078291;28;20036;-62
2023/03/13 16:15:38;;;;;;;37.92;4.47;;;;;;;20.59;35.55;101099.91;21080624;28;20036;-66
2023/03/13 16:25:39;;;;;;;25.50;3.22;;;;;;;20.48;35.79;101060.09;21077981;28;20040;-66
2023/03/13 16:35:41;;;;;;;120.53;9.38;;;;;;;20.66;36.18;101067.91;21077530;28;20098;-63
2023/03/13 16:45:42;;;;;;;31.25;3.50;;;;;;;20.81;36.54;101072.69;21075471;28;20399;-67
2023/03/13 16:55:44;;;;;;;44.40;5.40;;;;;;;20.85;36.67;101053.47;21075728;28;20094;-70
2023/03/13 17:05:48;;;;;;;26.85;4.32;;;;;;;20.54;37.09;101017.31;21074787;28;20044;-65
2023/03/13 17:15:49;;;;;;;17.90;3.70;;;;;;;20.50;37.20;101013.41;21075474;28;20040;-71
2023/03/13 17:25:53;;;;;;;17.25;3.55;;;;;;;20.49;37.52;101008.97;21075260;28;20040;-77
2023/03/13 17:35:57;;;;;;;19.20;2.95;;;;;;;20.48;37.01;100951.69;21073202;28;20036;-77
2023/03/13 17:46:04;;;;;;;795.08;88.50;;;;;;;20.60;37.37;100963.38;21074966;28;20418;-65
2023/03/13 17:56:17;;;;;;;394.25;35.40;;;;;;;20.44;37.48;100903.31;21074361;28;20080;-66
2023/03/13 18:06:26;;;;;;;92.53;13.20;;;;;;;20.85;37.21;100922.75;21089164;28;20066;-67
2023/03/13 18:16:36;;;;;;;;;;;;;;;21.03;36.09;100911.88;21088267;28;20043;-69
2023/03/13 18:26:39;;;;;;;56.10;10.38;;;;;;;20.83;36.76;100894.41;21088321;28;19931;-68
2023/03/13 18:36:41;;;;;;;58.67;8.40;;;;;;;20.86;36.60;100866.03;21086808;28;20048;-70
2023/03/13 18:46:46;;;;;;;55.67;7.90;;;;;;;21.01;36.09;100857.63;21085890;28;20085;-71
2023/03/13 18:56:53;;;;;;;48.75;7.13;;;;;;;20.79;36.41;100805.97;21084508;28;20391;-71
2023/03/13 19:06:54;;;;;;;34.70;6.85;;;;;;;20.98;35.89;100825.66;21082977;28;20031;-72
2023/03/13 19:16:56;;;;;;;78.28;7.35;;;;;;;20.43;36.02;100732.09;21083578;28;20043;-73
2023/03/13 19:27:01;;;;;;;41.85;5.38;;;;;;;20.87;36.45;100801.75;21082967;28;20032;-76
2023/03/13 19:37:02;;;;;;;39.63;5.15;;;;;;;20.97;36.50;100785.03;21086574;28;20108;-73
2023/03/13 19:47:04;;;;;;;29.02;3.92;;;;;;;21.10;35.58;100789.16;21083502;28;20562;-75
2023/03/13 19:57:08;;;;;;;23.08;3.63;;;;;;;21.09;35.89;100781.94;21083472;28;20552;-75
2023/03/13 20:07:10;;;;;;;86.13;9.02;;;;;;;21.09;36.05;100764.41;21087707;28;20048;-71
2023/03/13 20:17:11;;;;;;;53.50;5.05;;;;;;;21.10;35.63;100755.75;21073288;28;20121;-72
2023/03/13 20:27:12;;;;;;;211.68;17.83;;;;;;;20.97;36.19;100723.00;21078278;28;20032;-69
2023/03/13 20:37:14;;;;;;;184.40;16.75;;;;;;;21.15;36.75;100752.13;21077511;28;20044;-67
2023/03/13 20:47:16;;;;;;;135.10;14.27;;;;;;;21.16;36.57;100740.69;21077767;28;20437;-67
2023/03/13 20:57:18;;;;;;;127.97;11.60;;;;;;;21.16;36.68;100729.56;21077213;28;20044;-68
2023/03/13 21:07:20;;;;;;;114.88;11.88;;;;;;;21.05;37.56;100726.00;21074005;28;20047;-70
2023/03/13 21:17:21;;;;;;;92.10;9.45;;;;;;;21.17;37.26;100739.59;21074926;28;20051;-71
2023/03/13 21:27:22;;;;;;;60.17;8.63;;;;;;;21.03;36.92;100711.56;21075915;28;20017;-71
2023/03/13 21:37:24;;;;;;;54.15;5.53;;;;;;;21.21;36.40;100746.25;21088343;28;20039;-70
2023/03/13 21:47:25;;;;;;;28.25;3.85;;;;;;;21.25;36.30;100752.06;21040056;28;20045;-72
2023/03/13 21:57:27;;;;;;;28.10;3.90;;;;;;;21.17;36.70;100727.63;21012407;28;20093;-79
2023/03/13 22:07:29;;;;;;;26.98;3.78;;;;;;;20.72;38.02;100655.28;21082250;28;20540;-73
2023/03/13 22:17:31;;;;;;;31.40;3.72;;;;;;;21.34;38.70;100755.09;21072231;28;20138;-73
2023/03/13 22:27:32;;;;;;;29.05;4.60;;;;;;;21.38;39.04;100756.19;21054431;28;20098;-70
2023/03/13 22:37:33;;;;;;;44.70;5.25;;;;;;;21.31;39.01;100737.03;21084351;28;20051;-64
2023/03/13 22:47:35;;;;;;;58.00;6.72;;;;;;;21.40;38.89;100753.97;21075637;28;20453;-66
2023/03/13 22:57:39;;;;;;;58.05;6.72;;;;;;;21.38;38.94;100758.97;21066656;28;20047;-66
2023/03/13 23:07:43;;;;;;;43.88;5.82;;;;;;;21.38;38.62;100758.97;21039821;28;20041;-66
2023/03/13 23:17:44;;;;;;;39.25;5.43;;;;;;;21.36;39.09;100748.13;21047769;28;20148;-67
2023/03/13 23:27:49;;;;;;;42.97;5.50;;;;;;;21.35;39.01;100751.19;21077811;28;20044;-65
2023/03/13 23:37:53;;;;;;;32.70;5.68;;;;;;;21.35;39.39;100765.09;21052338;28;20052;-65
2023/03/13 23:47:55;;;;;;;22.42;3.90;;;;;;;21.37;39.01;100760.09;21065281;28;20065;-65
2023/03/13 23:57:56;;;;;;;19.92;4.18;;;;;;;21.41;39.43;100763.97;21070525;28;20043;-66
